sensor_id;sensor_type;location;lat;lon;timestamp;P1;durP1;ratioP1;P2;durP2;ratioP2
52668;SDS011;59898;52.786;6.892;2022-07-23T00:01:09;3.85;;;2.55;;
52668;SDS011;59898;52.786;6.892;2022-07-23T00:04:30;5.03;;;2.58;;
52668;SDS011;59898;52.786;6.892;2022-07-23T00:07:51;3.63;;;2.22;;
52668;SDS011;59898;52.786;6.892;2022-07-23T00:11:12;5.82;;;2.10;;
52668;SDS011;59898;52.786;6.892;2022-07-23T00:14:32;3.47;;;2.17;;
52668;SDS011;59898;52.786;6.892;2022-07-23T00:17:53;2.97;;;2.40;;
52668;SDS011;59898;52.786;6.892;2022-07-23T00:21:14;5.07;;;3.42;;
52668;SDS011;59898;52.786;6.892;2022-07-23T00:24:35;3.50;;;2.75;;
52668;SDS011;59898;52.786;6.892;2022-07-23T00:27:56;2.97;;;2.65;;
52668;SDS011;59898;52.786;6.892;2022-07-23T00:31:20;4.40;;;2.60;;
52668;SDS011;59898;52.786;6.892;2022-07-23T00:34:41;7.55;;;3.33;;
52668;SDS011;59898;52.786;6.892;2022-07-23T00:38:02;7.18;;;3.08;;
52668;SDS011;59898;52.786;6.892;2022-07-23T00:41:24;4.45;;;3.15;;
52668;SDS011;59898;52.786;6.892;2022-07-23T00:44:45;5.00;;;3.67;;
52668;SDS011;59898;52.786;6.892;2022-07-23T00:48:07;3.80;;;2.47;;
52668;SDS011;59898;52.786;6.892;2022-07-23T00:51:27;5.88;;;3.80;;
52668;SDS011;59898;52.786;6.892;2022-07-23T00:54:48;7.43;;;4.43;;
52668;SDS011;59898;52.786;6.892;2022-07-23T00:58:09;4.10;;;2.83;;
52668;SDS011;59898;52.786;6.892;2022-07-23T01:01:31;3.60;;;2.85;;
52668;SDS011;59898;52.786;6.892;2022-07-23T01:04:52;2.70;;;2.28;;
52668;SDS011;59898;52.786;6.892;2022-07-23T01:08:13;5.18;;;3.38;;
52668;SDS011;59898;52.786;6.892;2022-07-23T01:11:35;4.90;;;2.67;;
52668;SDS011;59898;52.786;6.892;2022-07-23T01:14:57;4.53;;;2.60;;
52668;SDS011;59898;52.786;6.892;2022-07-23T01:21:41;4.60;;;3.35;;
52668;SDS011;59898;52.786;6.892;2022-07-23T01:25:03;3.67;;;3.03;;
52668;SDS011;59898;52.786;6.892;2022-07-23T01:28:25;4.20;;;2.80;;
52668;SDS011;59898;52.786;6.892;2022-07-23T01:31:45;7.05;;;4.70;;
52668;SDS011;59898;52.786;6.892;2022-07-23T01:35:07;6.70;;;3.72;;
52668;SDS011;59898;52.786;6.892;2022-07-23T01:38:28;5.47;;;3.80;;
52668;SDS011;59898;52.786;6.892;2022-07-23T01:41:49;5.65;;;3.92;;
52668;SDS011;59898;52.786;6.892;2022-07-23T01:45:10;5.40;;;3.83;;
52668;SDS011;59898;52.786;6.892;2022-07-23T01:48:30;5.53;;;3.80;;
52668;SDS011;59898;52.786;6.892;2022-07-23T01:51:51;7.90;;;4.15;;
52668;SDS011;59898;52.786;6.892;2022-07-23T01:55:21;6.75;;;4.35;;
52668;SDS011;59898;52.786;6.892;2022-07-23T01:58:42;6.68;;;4.28;;
52668;SDS011;59898;52.786;6.892;2022-07-23T02:02:02;5.78;;;4.40;;
52668;SDS011;59898;52.786;6.892;2022-07-23T02:05:24;5.50;;;3.90;;
52668;SDS011;59898;52.786;6.892;2022-07-23T02:08:45;5.15;;;4.65;;
52668;SDS011;59898;52.786;6.892;2022-07-23T02:12:05;8.70;;;3.92;;
52668;SDS011;59898;52.786;6.892;2022-07-23T02:15:26;6.50;;;3.63;;
52668;SDS011;59898;52.786;6.892;2022-07-23T02:18:48;8.53;;;3.90;;
52668;SDS011;59898;52.786;6.892;2022-07-23T02:22:09;5.05;;;4.13;;
52668;SDS011;59898;52.786;6.892;2022-07-23T02:25:29;5.18;;;3.97;;
52668;SDS011;59898;52.786;6.892;2022-07-23T02:28:50;7.85;;;5.20;;
52668;SDS011;59898;52.786;6.892;2022-07-23T02:32:12;6.28;;;5.00;;
52668;SDS011;59898;52.786;6.892;2022-07-23T02:35:33;6.38;;;4.63;;
52668;SDS011;59898;52.786;6.892;2022-07-23T02:38:54;5.85;;;4.50;;
52668;SDS011;59898;52.786;6.892;2022-07-23T02:42:15;5.05;;;4.53;;
52668;SDS011;59898;52.786;6.892;2022-07-23T02:45:36;5.53;;;4.10;;
52668;SDS011;59898;52.786;6.892;2022-07-23T02:48:56;8.88;;;4.53;;
52668;SDS011;59898;52.786;6.892;2022-07-23T02:52:17;10.55;;;5.20;;
52668;SDS011;59898;52.786;6.892;2022-07-23T02:55:38;6.45;;;3.95;;
52668;SDS011;59898;52.786;6.892;2022-07-23T02:58:58;15.05;;;4.60;;
52668;SDS011;59898;52.786;6.892;2022-07-23T03:02:19;8.18;;;5.72;;
52668;SDS011;59898;52.786;6.892;2022-07-23T03:05:40;8.20;;;4.22;;
52668;SDS011;59898;52.786;6.892;2022-07-23T03:09:01;9.55;;;4.35;;
52668;SDS011;59898;52.786;6.892;2022-07-23T03:12:22;6.88;;;4.78;;
52668;SDS011;59898;52.786;6.892;2022-07-23T03:15:43;9.10;;;4.70;;
52668;SDS011;59898;52.786;6.892;2022-07-23T03:19:03;7.95;;;5.03;;
52668;SDS011;59898;52.786;6.892;2022-07-23T03:22:24;7.07;;;4.93;;
52668;SDS011;59898;52.786;6.892;2022-07-23T03:25:45;5.43;;;4.40;;
52668;SDS011;59898;52.786;6.892;2022-07-23T03:29:08;6.65;;;4.40;;
52668;SDS011;59898;52.786;6.892;2022-07-23T03:32:28;7.93;;;5.38;;
52668;SDS011;59898;52.786;6.892;2022-07-23T03:35:49;11.38;;;5.55;;
52668;SDS011;59898;52.786;6.892;2022-07-23T03:39:10;7.28;;;4.60;;
52668;SDS011;59898;52.786;6.892;2022-07-23T03:42:31;6.43;;;4.15;;
52668;SDS011;59898;52.786;6.892;2022-07-23T03:45:51;7.45;;;4.82;;
52668;SDS011;59898;52.786;6.892;2022-07-23T03:49:12;7.35;;;5.10;;
52668;SDS011;59898;52.786;6.892;2022-07-23T03:52:33;5.38;;;4.88;;
52668;SDS011;59898;52.786;6.892;2022-07-23T03:55:53;7.70;;;4.65;;
52668;SDS011;59898;52.786;6.892;2022-07-23T03:59:14;7.63;;;5.28;;
52668;SDS011;59898;52.786;6.892;2022-07-23T04:02:36;6.32;;;5.03;;
52668;SDS011;59898;52.786;6.892;2022-07-23T04:05:57;6.18;;;5.32;;
52668;SDS011;59898;52.786;6.892;2022-07-23T04:09:18;8.77;;;6.25;;
52668;SDS011;59898;52.786;6.892;2022-07-23T04:12:38;9.85;;;5.00;;
52668;SDS011;59898;52.786;6.892;2022-07-23T04:15:59;12.38;;;5.60;;
52668;SDS011;59898;52.786;6.892;2022-07-23T04:19:20;7.55;;;5.63;;
52668;SDS011;59898;52.786;6.892;2022-07-23T04:22:40;7.95;;;5.55;;
52668;SDS011;59898;52.786;6.892;2022-07-23T04:26:01;7.05;;;4.72;;
52668;SDS011;59898;52.786;6.892;2022-07-23T04:29:22;8.95;;;5.82;;
52668;SDS011;59898;52.786;6.892;2022-07-23T04:32:42;6.78;;;5.28;;
52668;SDS011;59898;52.786;6.892;2022-07-23T04:36:03;8.50;;;5.25;;
52668;SDS011;59898;52.786;6.892;2022-07-23T04:39:24;7.80;;;5.15;;
52668;SDS011;59898;52.786;6.892;2022-07-23T04:42:44;6.80;;;5.68;;
52668;SDS011;59898;52.786;6.892;2022-07-23T04:46:05;10.77;;;6.32;;
52668;SDS011;59898;52.786;6.892;2022-07-23T04:49:26;8.02;;;5.35;;
52668;SDS011;59898;52.786;6.892;2022-07-23T04:52:47;7.32;;;5.40;;
52668;SDS011;59898;52.786;6.892;2022-07-23T04:56:08;9.45;;;5.45;;
52668;SDS011;59898;52.786;6.892;2022-07-23T04:59:29;10.52;;;5.75;;
52668;SDS011;59898;52.786;6.892;2022-07-23T05:02:49;8.57;;;5.22;;
52668;SDS011;59898;52.786;6.892;2022-07-23T05:06:10;8.80;;;5.43;;
52668;SDS011;59898;52.786;6.892;2022-07-23T05:09:31;6.30;;;4.85;;
52668;SDS011;59898;52.786;6.892;2022-07-23T05:12:52;7.10;;;5.50;;
52668;SDS011;59898;52.786;6.892;2022-07-23T05:16:12;9.55;;;5.30;;
52668;SDS011;59898;52.786;6.892;2022-07-23T05:19:33;6.70;;;5.75;;
52668;SDS011;59898;52.786;6.892;2022-07-23T05:22:54;7.20;;;4.40;;
52668;SDS011;59898;52.786;6.892;2022-07-23T05:26:15;7.53;;;4.80;;
52668;SDS011;59898;52.786;6.892;2022-07-23T05:29:36;12.27;;;5.55;;
52668;SDS011;59898;52.786;6.892;2022-07-23T05:32:56;9.05;;;4.50;;
52668;SDS011;59898;52.786;6.892;2022-07-23T05:36:17;8.30;;;5.68;;
52668;SDS011;59898;52.786;6.892;2022-07-23T05:39:38;9.05;;;4.65;;
52668;SDS011;59898;52.786;6.892;2022-07-23T05:42:59;7.18;;;4.57;;
52668;SDS011;59898;52.786;6.892;2022-07-23T05:46:19;5.55;;;4.35;;
52668;SDS011;59898;52.786;6.892;2022-07-23T05:49:40;7.78;;;4.57;;
52668;SDS011;59898;52.786;6.892;2022-07-23T05:53:01;4.28;;;2.83;;
52668;SDS011;59898;52.786;6.892;2022-07-23T05:56:21;14.60;;;3.17;;
52668;SDS011;59898;52.786;6.892;2022-07-23T05:59:42;8.55;;;3.33;;
52668;SDS011;59898;52.786;6.892;2022-07-23T06:03:03;5.45;;;2.90;;
52668;SDS011;59898;52.786;6.892;2022-07-23T06:06:23;5.30;;;3.03;;
52668;SDS011;59898;52.786;6.892;2022-07-23T06:09:44;5.35;;;2.72;;
52668;SDS011;59898;52.786;6.892;2022-07-23T06:13:06;5.97;;;2.90;;
52668;SDS011;59898;52.786;6.892;2022-07-23T06:16:27;5.40;;;2.67;;
52668;SDS011;59898;52.786;6.892;2022-07-23T06:19:48;4.78;;;2.53;;
52668;SDS011;59898;52.786;6.892;2022-07-23T06:23:08;4.38;;;2.65;;
52668;SDS011;59898;52.786;6.892;2022-07-23T06:26:30;3.67;;;2.80;;
52668;SDS011;59898;52.786;6.892;2022-07-23T06:29:50;3.85;;;2.85;;
52668;SDS011;59898;52.786;6.892;2022-07-23T06:33:11;8.27;;;2.30;;
52668;SDS011;59898;52.786;6.892;2022-07-23T06:36:32;4.90;;;2.15;;
52668;SDS011;59898;52.786;6.892;2022-07-23T06:39:53;3.80;;;2.50;;
52668;SDS011;59898;52.786;6.892;2022-07-23T06:43:13;3.05;;;2.10;;
52668;SDS011;59898;52.786;6.892;2022-07-23T06:46:34;6.47;;;2.00;;
52668;SDS011;59898;52.786;6.892;2022-07-23T06:49:55;3.38;;;2.28;;
52668;SDS011;59898;52.786;6.892;2022-07-23T06:53:15;4.70;;;2.25;;
52668;SDS011;59898;52.786;6.892;2022-07-23T06:56:36;7.78;;;2.38;;
52668;SDS011;59898;52.786;6.892;2022-07-23T06:59:57;4.93;;;1.98;;
52668;SDS011;59898;52.786;6.892;2022-07-23T07:03:18;3.28;;;2.05;;
52668;SDS011;59898;52.786;6.892;2022-07-23T07:06:39;4.05;;;1.80;;
52668;SDS011;59898;52.786;6.892;2022-07-23T07:09:59;2.35;;;1.80;;
52668;SDS011;59898;52.786;6.892;2022-07-23T07:13:20;5.68;;;2.30;;
52668;SDS011;59898;52.786;6.892;2022-07-23T07:16:41;4.68;;;2.15;;
52668;SDS011;59898;52.786;6.892;2022-07-23T07:20:02;3.25;;;2.40;;
52668;SDS011;59898;52.786;6.892;2022-07-23T07:23:24;4.53;;;2.55;;
52668;SDS011;59898;52.786;6.892;2022-07-23T07:26:44;2.80;;;1.73;;
52668;SDS011;59898;52.786;6.892;2022-07-23T07:30:06;3.17;;;2.10;;
52668;SDS011;59898;52.786;6.892;2022-07-23T07:33:27;3.57;;;2.00;;
52668;SDS011;59898;52.786;6.892;2022-07-23T07:36:48;3.38;;;2.00;;
52668;SDS011;59898;52.786;6.892;2022-07-23T07:40:10;3.75;;;2.00;;
52668;SDS011;59898;52.786;6.892;2022-07-23T07:43:30;4.00;;;2.13;;
52668;SDS011;59898;52.786;6.892;2022-07-23T07:46:51;3.10;;;1.95;;
52668;SDS011;59898;52.786;6.892;2022-07-23T07:50:13;4.50;;;1.95;;
52668;SDS011;59898;52.786;6.892;2022-07-23T07:53:34;5.40;;;1.70;;
52668;SDS011;59898;52.786;6.892;2022-07-23T07:56:55;3.90;;;1.83;;
52668;SDS011;59898;52.786;6.892;2022-07-23T08:00:15;3.08;;;2.50;;
52668;SDS011;59898;52.786;6.892;2022-07-23T08:03:36;1.98;;;1.60;;
52668;SDS011;59898;52.786;6.892;2022-07-23T08:06:57;3.28;;;1.70;;
52668;SDS011;59898;52.786;6.892;2022-07-23T08:10:18;4.78;;;2.58;;
52668;SDS011;59898;52.786;6.892;2022-07-23T08:13:39;3.22;;;2.13;;
52668;SDS011;59898;52.786;6.892;2022-07-23T08:17:00;2.10;;;1.80;;
52668;SDS011;59898;52.786;6.892;2022-07-23T08:20:21;5.13;;;1.88;;
52668;SDS011;59898;52.786;6.892;2022-07-23T08:23:43;2.58;;;1.63;;
52668;SDS011;59898;52.786;6.892;2022-07-23T08:27:03;3.83;;;1.80;;
52668;SDS011;59898;52.786;6.892;2022-07-23T08:30:24;4.03;;;1.83;;
52668;SDS011;59898;52.786;6.892;2022-07-23T08:33:45;5.10;;;2.67;;
52668;SDS011;59898;52.786;6.892;2022-07-23T08:37:06;3.08;;;1.70;;
52668;SDS011;59898;52.786;6.892;2022-07-23T08:40:27;4.32;;;1.60;;
52668;SDS011;59898;52.786;6.892;2022-07-23T08:47:10;3.28;;;1.73;;
52668;SDS011;59898;52.786;6.892;2022-07-23T08:50:32;2.42;;;1.75;;
52668;SDS011;59898;52.786;6.892;2022-07-23T08:53:56;2.45;;;1.58;;
52668;SDS011;59898;52.786;6.892;2022-07-23T08:57:17;3.25;;;1.70;;
52668;SDS011;59898;52.786;6.892;2022-07-23T09:00:38;2.55;;;1.50;;
52668;SDS011;59898;52.786;6.892;2022-07-23T09:03:59;4.05;;;3.10;;
52668;SDS011;59898;52.786;6.892;2022-07-23T09:07:21;5.55;;;2.10;;
52668;SDS011;59898;52.786;6.892;2022-07-23T09:10:55;2.40;;;1.80;;
52668;SDS011;59898;52.786;6.892;2022-07-23T09:14:17;3.47;;;2.25;;
52668;SDS011;59898;52.786;6.892;2022-07-23T09:17:59;2.17;;;1.50;;
52668;SDS011;59898;52.786;6.892;2022-07-23T09:21:27;5.28;;;2.50;;
52668;SDS011;59898;52.786;6.892;2022-07-23T09:25:06;4.07;;;1.95;;
52668;SDS011;59898;52.786;6.892;2022-07-23T09:28:45;2.90;;;1.80;;
52668;SDS011;59898;52.786;6.892;2022-07-23T09:32:17;5.25;;;2.40;;
52668;SDS011;59898;52.786;6.892;2022-07-23T09:39:08;1.45;;;1.35;;
52668;SDS011;59898;52.786;6.892;2022-07-23T09:42:28;4.85;;;1.80;;
52668;SDS011;59898;52.786;6.892;2022-07-23T09:46:16;3.00;;;1.70;;
52668;SDS011;59898;52.786;6.892;2022-07-23T09:49:37;2.17;;;1.90;;
52668;SDS011;59898;52.786;6.892;2022-07-23T09:52:58;3.40;;;1.92;;
52668;SDS011;59898;52.786;6.892;2022-07-23T09:56:18;2.83;;;1.73;;
52668;SDS011;59898;52.786;6.892;2022-07-23T09:59:41;2.28;;;1.80;;
52668;SDS011;59898;52.786;6.892;2022-07-23T10:03:04;3.25;;;1.95;;
52668;SDS011;59898;52.786;6.892;2022-07-23T10:06:26;1.50;;;1.40;;
52668;SDS011;59898;52.786;6.892;2022-07-23T10:13:12;2.95;;;2.40;;
52668;SDS011;59898;52.786;6.892;2022-07-23T10:16:46;2.42;;;1.80;;
52668;SDS011;59898;52.786;6.892;2022-07-23T10:20:08;1.63;;;1.50;;
52668;SDS011;59898;52.786;6.892;2022-07-23T10:30:45;1.80;;;1.70;;
52668;SDS011;59898;52.786;6.892;2022-07-23T10:38:05;3.97;;;2.90;;
52668;SDS011;59898;52.786;6.892;2022-07-23T10:41:31;4.35;;;1.60;;
52668;SDS011;59898;52.786;6.892;2022-07-23T10:44:59;1.63;;;1.48;;
52668;SDS011;59898;52.786;6.892;2022-07-23T10:48:20;3.28;;;1.95;;
52668;SDS011;59898;52.786;6.892;2022-07-23T10:52:14;2.60;;;1.75;;
52668;SDS011;59898;52.786;6.892;2022-07-23T10:58:56;2.97;;;1.48;;
52668;SDS011;59898;52.786;6.892;2022-07-23T11:02:24;1.95;;;1.75;;
52668;SDS011;59898;52.786;6.892;2022-07-23T11:05:45;4.00;;;2.78;;
52668;SDS011;59898;52.786;6.892;2022-07-23T11:12:50;2.03;;;1.80;;
52668;SDS011;59898;52.786;6.892;2022-07-23T11:16:30;2.53;;;2.20;;
52668;SDS011;59898;52.786;6.892;2022-07-23T11:27:25;2.40;;;1.55;;
52668;SDS011;59898;52.786;6.892;2022-07-23T11:31:16;2.03;;;1.60;;
52668;SDS011;59898;52.786;6.892;2022-07-23T11:38:08;2.38;;;1.98;;
52668;SDS011;59898;52.786;6.892;2022-07-23T11:41:43;3.72;;;1.95;;
52668;SDS011;59898;52.786;6.892;2022-07-23T11:45:05;2.55;;;1.65;;
52668;SDS011;59898;52.786;6.892;2022-07-23T11:48:28;2.63;;;1.63;;
52668;SDS011;59898;52.786;6.892;2022-07-23T11:55:27;3.30;;;2.65;;
52668;SDS011;59898;52.786;6.892;2022-07-23T11:58:55;4.78;;;2.13;;
52668;SDS011;59898;52.786;6.892;2022-07-23T12:02:19;2.53;;;1.70;;
52668;SDS011;59898;52.786;6.892;2022-07-23T12:05:40;10.55;;;6.65;;
52668;SDS011;59898;52.786;6.892;2022-07-23T12:09:01;6.68;;;2.80;;
52668;SDS011;59898;52.786;6.892;2022-07-23T12:12:23;3.33;;;2.40;;
52668;SDS011;59898;52.786;6.892;2022-07-23T12:15:44;2.90;;;2.00;;
52668;SDS011;59898;52.786;6.892;2022-07-23T12:19:07;2.70;;;1.70;;
52668;SDS011;59898;52.786;6.892;2022-07-23T12:22:33;3.60;;;2.00;;
52668;SDS011;59898;52.786;6.892;2022-07-23T12:26:00;4.25;;;2.03;;
52668;SDS011;59898;52.786;6.892;2022-07-23T12:29:21;4.00;;;1.95;;
52668;SDS011;59898;52.786;6.892;2022-07-23T12:32:43;3.42;;;1.98;;
52668;SDS011;59898;52.786;6.892;2022-07-23T12:36:07;5.85;;;2.67;;
52668;SDS011;59898;52.786;6.892;2022-07-23T12:39:29;3.88;;;2.10;;
52668;SDS011;59898;52.786;6.892;2022-07-23T12:42:53;3.55;;;2.20;;
52668;SDS011;59898;52.786;6.892;2022-07-23T12:46:21;2.85;;;2.10;;
52668;SDS011;59898;52.786;6.892;2022-07-23T12:49:42;3.55;;;2.30;;
52668;SDS011;59898;52.786;6.892;2022-07-23T12:53:10;3.55;;;2.00;;
52668;SDS011;59898;52.786;6.892;2022-07-23T12:56:35;3.72;;;2.13;;
52668;SDS011;59898;52.786;6.892;2022-07-23T13:00:09;3.28;;;2.28;;
52668;SDS011;59898;52.786;6.892;2022-07-23T13:06:55;3.75;;;2.30;;
52668;SDS011;59898;52.786;6.892;2022-07-23T13:10:21;3.78;;;2.40;;
52668;SDS011;59898;52.786;6.892;2022-07-23T13:13:42;4.15;;;2.78;;
52668;SDS011;59898;52.786;6.892;2022-07-23T13:17:02;3.33;;;2.00;;
52668;SDS011;59898;52.786;6.892;2022-07-23T13:20:23;6.30;;;2.65;;
52668;SDS011;59898;52.786;6.892;2022-07-23T13:23:44;3.17;;;2.20;;
52668;SDS011;59898;52.786;6.892;2022-07-23T13:27:05;4.93;;;2.50;;
52668;SDS011;59898;52.786;6.892;2022-07-23T13:30:28;4.20;;;2.25;;
52668;SDS011;59898;52.786;6.892;2022-07-23T13:33:49;2.88;;;2.20;;
52668;SDS011;59898;52.786;6.892;2022-07-23T13:37:09;4.82;;;2.72;;
52668;SDS011;59898;52.786;6.892;2022-07-23T13:40:30;3.65;;;2.65;;
52668;SDS011;59898;52.786;6.892;2022-07-23T13:43:51;2.63;;;2.15;;
52668;SDS011;59898;52.786;6.892;2022-07-23T13:47:12;9.85;;;6.95;;
52668;SDS011;59898;52.786;6.892;2022-07-23T13:50:33;5.82;;;4.53;;
52668;SDS011;59898;52.786;6.892;2022-07-23T13:53:54;3.20;;;2.60;;
52668;SDS011;59898;52.786;6.892;2022-07-23T13:57:15;3.75;;;2.30;;
52668;SDS011;59898;52.786;6.892;2022-07-23T14:00:38;3.28;;;2.67;;
52668;SDS011;59898;52.786;6.892;2022-07-23T14:04:01;6.63;;;2.65;;
52668;SDS011;59898;52.786;6.892;2022-07-23T14:07:21;3.10;;;2.30;;
52668;SDS011;59898;52.786;6.892;2022-07-23T14:10:42;3.15;;;2.40;;
52668;SDS011;59898;52.786;6.892;2022-07-23T14:14:03;2.63;;;2.30;;
52668;SDS011;59898;52.786;6.892;2022-07-23T14:17:24;6.55;;;4.88;;
52668;SDS011;59898;52.786;6.892;2022-07-23T14:20:44;16.73;;;3.40;;
52668;SDS011;59898;52.786;6.892;2022-07-23T14:24:05;4.53;;;2.50;;
52668;SDS011;59898;52.786;6.892;2022-07-23T14:27:26;4.18;;;2.80;;
52668;SDS011;59898;52.786;6.892;2022-07-23T14:30:48;3.38;;;2.22;;
52668;SDS011;59898;52.786;6.892;2022-07-23T14:34:09;3.92;;;2.40;;
52668;SDS011;59898;52.786;6.892;2022-07-23T14:37:31;6.57;;;2.47;;
52668;SDS011;59898;52.786;6.892;2022-07-23T14:40:52;3.75;;;2.65;;
52668;SDS011;59898;52.786;6.892;2022-07-23T14:44:13;4.20;;;2.50;;
52668;SDS011;59898;52.786;6.892;2022-07-23T14:47:34;3.30;;;2.60;;
52668;SDS011;59898;52.786;6.892;2022-07-23T14:50:54;3.90;;;2.90;;
52668;SDS011;59898;52.786;6.892;2022-07-23T14:54:15;5.68;;;2.72;;
52668;SDS011;59898;52.786;6.892;2022-07-23T14:57:36;3.10;;;2.33;;
52668;SDS011;59898;52.786;6.892;2022-07-23T15:00:56;4.63;;;2.47;;
52668;SDS011;59898;52.786;6.892;2022-07-23T15:04:17;5.45;;;3.53;;
52668;SDS011;59898;52.786;6.892;2022-07-23T15:07:38;4.07;;;3.50;;
52668;SDS011;59898;52.786;6.892;2022-07-23T15:10:59;4.40;;;2.28;;
52668;SDS011;59898;52.786;6.892;2022-07-23T15:14:19;4.15;;;2.80;;
52668;SDS011;59898;52.786;6.892;2022-07-23T15:17:40;3.15;;;2.17;;
52668;SDS011;59898;52.786;6.892;2022-07-23T15:21:01;4.07;;;2.53;;
52668;SDS011;59898;52.786;6.892;2022-07-23T15:24:22;2.87;;;2.07;;
52668;SDS011;59898;52.786;6.892;2022-07-23T15:27:43;6.90;;;3.17;;
52668;SDS011;59898;52.786;6.892;2022-07-23T15:31:04;3.35;;;2.38;;
52668;SDS011;59898;52.786;6.892;2022-07-23T15:34:28;3.17;;;2.25;;
52668;SDS011;59898;52.786;6.892;2022-07-23T15:37:48;3.50;;;2.60;;
52668;SDS011;59898;52.786;6.892;2022-07-23T15:41:09;2.85;;;2.35;;
52668;SDS011;59898;52.786;6.892;2022-07-23T15:44:30;4.35;;;2.33;;
52668;SDS011;59898;52.786;6.892;2022-07-23T15:47:50;5.55;;;3.25;;
52668;SDS011;59898;52.786;6.892;2022-07-23T15:51:11;4.20;;;3.08;;
52668;SDS011;59898;52.786;6.892;2022-07-23T15:54:32;4.00;;;2.83;;
52668;SDS011;59898;52.786;6.892;2022-07-23T15:57:52;5.32;;;2.78;;
52668;SDS011;59898;52.786;6.892;2022-07-23T16:01:13;3.88;;;2.40;;
52668;SDS011;59898;52.786;6.892;2022-07-23T16:04:34;3.10;;;2.45;;
52668;SDS011;59898;52.786;6.892;2022-07-23T16:07:55;2.70;;;2.30;;
52668;SDS011;59898;52.786;6.892;2022-07-23T16:11:15;3.67;;;2.50;;
52668;SDS011;59898;52.786;6.892;2022-07-23T16:14:36;3.83;;;2.60;;
52668;SDS011;59898;52.786;6.892;2022-07-23T16:17:57;5.25;;;2.47;;
52668;SDS011;59898;52.786;6.892;2022-07-23T16:21:18;6.90;;;4.25;;
52668;SDS011;59898;52.786;6.892;2022-07-23T16:24:39;4.15;;;3.75;;
52668;SDS011;59898;52.786;6.892;2022-07-23T16:28:00;5.43;;;3.03;;
52668;SDS011;59898;52.786;6.892;2022-07-23T16:31:21;3.47;;;2.40;;
52668;SDS011;59898;52.786;6.892;2022-07-23T16:34:41;4.22;;;2.10;;
52668;SDS011;59898;52.786;6.892;2022-07-23T16:38:02;4.20;;;2.60;;
52668;SDS011;59898;52.786;6.892;2022-07-23T16:41:24;3.40;;;2.30;;
52668;SDS011;59898;52.786;6.892;2022-07-23T16:44:44;3.05;;;2.03;;
52668;SDS011;59898;52.786;6.892;2022-07-23T16:48:05;5.32;;;2.47;;
52668;SDS011;59898;52.786;6.892;2022-07-23T16:51:26;3.55;;;2.25;;
52668;SDS011;59898;52.786;6.892;2022-07-23T16:54:47;2.40;;;1.95;;
52668;SDS011;59898;52.786;6.892;2022-07-23T16:58:08;2.88;;;2.45;;
52668;SDS011;59898;52.786;6.892;2022-07-23T17:01:29;3.58;;;2.33;;
52668;SDS011;59898;52.786;6.892;2022-07-23T17:04:49;3.42;;;2.30;;
52668;SDS011;59898;52.786;6.892;2022-07-23T17:08:10;4.65;;;2.80;;
52668;SDS011;59898;52.786;6.892;2022-07-23T17:11:31;4.22;;;2.63;;
52668;SDS011;59898;52.786;6.892;2022-07-23T17:14:51;3.42;;;2.00;;
52668;SDS011;59898;52.786;6.892;2022-07-23T17:18:12;4.13;;;2.80;;
52668;SDS011;59898;52.786;6.892;2022-07-23T17:21:33;5.55;;;3.80;;
52668;SDS011;59898;52.786;6.892;2022-07-23T17:24:54;6.47;;;5.40;;
52668;SDS011;59898;52.786;6.892;2022-07-23T17:28:15;6.22;;;4.18;;
52668;SDS011;59898;52.786;6.892;2022-07-23T17:31:35;10.38;;;8.68;;
52668;SDS011;59898;52.786;6.892;2022-07-23T17:34:56;4.15;;;3.20;;
52668;SDS011;59898;52.786;6.892;2022-07-23T17:38:17;3.92;;;3.10;;
52668;SDS011;59898;52.786;6.892;2022-07-23T17:41:38;4.22;;;2.95;;
52668;SDS011;59898;52.786;6.892;2022-07-23T17:44:58;2.97;;;2.53;;
52668;SDS011;59898;52.786;6.892;2022-07-23T17:48:19;3.25;;;2.67;;
52668;SDS011;59898;52.786;6.892;2022-07-23T17:51:40;3.33;;;2.78;;
52668;SDS011;59898;52.786;6.892;2022-07-23T17:55:02;4.97;;;2.60;;
52668;SDS011;59898;52.786;6.892;2022-07-23T17:58:22;3.90;;;2.58;;
52668;SDS011;59898;52.786;6.892;2022-07-23T18:01:43;4.88;;;3.53;;
52668;SDS011;59898;52.786;6.892;2022-07-23T18:05:04;5.32;;;3.97;;
52668;SDS011;59898;52.786;6.892;2022-07-23T18:08:25;6.20;;;3.22;;
52668;SDS011;59898;52.786;6.892;2022-07-23T18:11:46;4.88;;;3.33;;
52668;SDS011;59898;52.786;6.892;2022-07-23T18:15:07;3.88;;;2.65;;
52668;SDS011;59898;52.786;6.892;2022-07-23T18:18:28;5.70;;;2.50;;
52668;SDS011;59898;52.786;6.892;2022-07-23T18:21:49;2.78;;;2.30;;
52668;SDS011;59898;52.786;6.892;2022-07-23T18:25:10;4.38;;;2.95;;
52668;SDS011;59898;52.786;6.892;2022-07-23T18:28:32;3.75;;;2.90;;
52668;SDS011;59898;52.786;6.892;2022-07-23T18:31:53;5.43;;;2.67;;
52668;SDS011;59898;52.786;6.892;2022-07-23T18:35:14;4.00;;;3.60;;
52668;SDS011;59898;52.786;6.892;2022-07-23T18:38:35;4.47;;;2.70;;
52668;SDS011;59898;52.786;6.892;2022-07-23T18:41:56;5.68;;;3.92;;
52668;SDS011;59898;52.786;6.892;2022-07-23T18:45:16;5.13;;;2.95;;
52668;SDS011;59898;52.786;6.892;2022-07-23T18:48:37;5.20;;;3.15;;
52668;SDS011;59898;52.786;6.892;2022-07-23T18:51:58;5.28;;;3.88;;
52668;SDS011;59898;52.786;6.892;2022-07-23T18:55:20;7.70;;;5.78;;
52668;SDS011;59898;52.786;6.892;2022-07-23T18:58:40;7.18;;;3.75;;
52668;SDS011;59898;52.786;6.892;2022-07-23T19:02:01;3.83;;;3.15;;
52668;SDS011;59898;52.786;6.892;2022-07-23T19:05:23;4.13;;;2.65;;
52668;SDS011;59898;52.786;6.892;2022-07-23T19:08:44;4.68;;;3.00;;
52668;SDS011;59898;52.786;6.892;2022-07-23T19:12:04;5.30;;;2.70;;
52668;SDS011;59898;52.786;6.892;2022-07-23T19:15:25;4.10;;;2.80;;
52668;SDS011;59898;52.786;6.892;2022-07-23T19:18:46;4.03;;;3.08;;
52668;SDS011;59898;52.786;6.892;2022-07-23T19:22:07;4.18;;;3.25;;
52668;SDS011;59898;52.786;6.892;2022-07-23T19:25:30;5.35;;;3.70;;
52668;SDS011;59898;52.786;6.892;2022-07-23T19:28:51;10.43;;;3.58;;
52668;SDS011;59898;52.786;6.892;2022-07-23T19:32:13;4.32;;;3.92;;
52668;SDS011;59898;52.786;6.892;2022-07-23T19:35:35;6.22;;;5.63;;
52668;SDS011;59898;52.786;6.892;2022-07-23T19:38:55;6.65;;;5.15;;
52668;SDS011;59898;52.786;6.892;2022-07-23T19:42:16;4.90;;;3.53;;
52668;SDS011;59898;52.786;6.892;2022-07-23T19:45:37;4.70;;;3.45;;
52668;SDS011;59898;52.786;6.892;2022-07-23T19:48:58;4.80;;;3.20;;
52668;SDS011;59898;52.786;6.892;2022-07-23T19:52:19;8.13;;;5.30;;
52668;SDS011;59898;52.786;6.892;2022-07-23T19:55:40;7.00;;;5.05;;
52668;SDS011;59898;52.786;6.892;2022-07-23T19:59:01;6.32;;;3.38;;
52668;SDS011;59898;52.786;6.892;2022-07-23T20:02:22;5.53;;;4.07;;
52668;SDS011;59898;52.786;6.892;2022-07-23T20:05:43;6.78;;;4.47;;
52668;SDS011;59898;52.786;6.892;2022-07-23T20:09:04;6.18;;;3.58;;
52668;SDS011;59898;52.786;6.892;2022-07-23T20:12:25;6.07;;;4.47;;
52668;SDS011;59898;52.786;6.892;2022-07-23T20:15:46;4.35;;;3.75;;
52668;SDS011;59898;52.786;6.892;2022-07-23T20:19:07;4.00;;;3.30;;
52668;SDS011;59898;52.786;6.892;2022-07-23T20:22:28;5.28;;;3.85;;
52668;SDS011;59898;52.786;6.892;2022-07-23T20:25:49;7.60;;;4.97;;
52668;SDS011;59898;52.786;6.892;2022-07-23T20:29:10;5.85;;;4.57;;
52668;SDS011;59898;52.786;6.892;2022-07-23T20:32:30;5.93;;;4.25;;
52668;SDS011;59898;52.786;6.892;2022-07-23T20:35:51;6.93;;;4.50;;
52668;SDS011;59898;52.786;6.892;2022-07-23T20:39:12;6.43;;;3.60;;
52668;SDS011;59898;52.786;6.892;2022-07-23T20:42:33;7.50;;;4.10;;
52668;SDS011;59898;52.786;6.892;2022-07-23T20:45:54;7.35;;;5.95;;
52668;SDS011;59898;52.786;6.892;2022-07-23T20:49:15;7.18;;;4.85;;
52668;SDS011;59898;52.786;6.892;2022-07-23T20:52:39;6.97;;;5.65;;
52668;SDS011;59898;52.786;6.892;2022-07-23T20:56:00;6.05;;;4.78;;
52668;SDS011;59898;52.786;6.892;2022-07-23T20:59:21;5.78;;;4.40;;
52668;SDS011;59898;52.786;6.892;2022-07-23T21:02:42;6.38;;;5.72;;
52668;SDS011;59898;52.786;6.892;2022-07-23T21:06:03;4.90;;;4.40;;